Time;durP1;ratioP1;P1;durP2;ratioP2;P2;SDS_P1;SDS_P2;PMS_P1;PMS_P2;Temp;Humidity;BMP_temperature;BMP_pressure;BME280_temperature;BME280_humidity;BME280_pressure;Samples;Min_cycle;Max_cycle;Signal;HPM_P1;HPM_P2
2022/10/31 00:00:41;;;;;;;41.17;17.00;;;;;;;;;;4970702;28;20465;-78
2022/10/31 00:03:07;;;;;;;40.17;17.02;;;;;;;;;;4972442;28;20371;-77
2022/10/31 00:05:36;;;;;;;36.03;15.38;;;;;;;;;;4971917;28;20046;-77
2022/10/31 00:08:02;;;;;;;40.95;17.50;;;;;;;;;;4971942;28;20046;-77
2022/10/31 00:10:28;;;;;;;36.13;15.52;;;;;;;;;;4971224;28;20058;-77
2022/10/31 00:12:54;;;;;;;32.40;15.10;;;;;;;;;;4975279;28;20450;-77
2022/10/31 00:15:20;;;;;;;34.42;16.05;;;;;;;;;;4974184;28;20033;-78
2022/10/31 00:17:46;;;;;;;32.80;15.07;;;;;;;;;;4975358;28;20510;-77
2022/10/31 00:20:12;;;;;;;35.08;14.73;;;;;;;;;;4974636;28;20058;-77
2022/10/31 00:22:38;;;;;;;29.63;13.32;;;;;;;;;;4975191;28;20621;-77
2022/10/31 00:25:04;;;;;;;28.10;13.85;;;;;;;;;;4975369;28;20018;-78
2022/10/31 00:27:30;;;;;;;28.38;12.88;;;;;;;;;;4975198;28;20027;-77
2022/10/31 00:29:56;;;;;;;27.98;13.18;;;;;;;;;;4974528;28;20102;-77
2022/10/31 00:32:22;;;;;;;26.05;12.63;;;;;;;;;;4973727;28;20046;-77
2022/10/31 00:34:48;;;;;;;27.17;12.60;;;;;;;;;;4973364;28;20034;-77
2022/10/31 00:37:14;;;;;;;25.17;12.38;;;;;;;;;;4974740;28;20082;-78
2022/10/31 00:39:40;;;;;;;25.23;13.40;;;;;;;;;;4975059;28;20015;-78
2022/10/31 00:42:06;;;;;;;26.55;12.55;;;;;;;;;;4974103;28;20517;-78
2022/10/31 00:44:32;;;;;;;25.38;12.38;;;;;;;;;;4974954;28;20027;-77
2022/10/31 00:46:57;;;;;;;24.15;12.50;;;;;;;;;;4974884;28;20636;-76
2022/10/31 00:49:23;;;;;;;26.00;13.32;;;;;;;;;;4974642;28;20030;-76
2022/10/31 00:51:49;;;;;;;24.13;11.82;;;;;;;;;;4973979;28;20073;-78
2022/10/31 00:54:18;;;;;;;28.85;13.45;;;;;;;;;;4974103;28;20031;-76
2022/10/31 00:56:44;;;;;;;31.20;14.32;;;;;;;;;;4974656;28;20049;-79
2022/10/31 00:59:10;;;;;;;23.65;12.57;;;;;;;;;;4974749;28;20019;-77
2022/10/31 01:01:36;;;;;;;29.27;12.48;;;;;;;;;;4973572;28;20109;-77
2022/10/31 01:04:02;;;;;;;29.73;13.43;;;;;;;;;;4974402;28;20111;-78
2022/10/31 01:06:28;;;;;;;26.88;13.10;;;;;;;;;;4974491;28;20113;-78
2022/10/31 01:08:54;;;;;;;31.75;13.13;;;;;;;;;;4974388;28;20053;-77
2022/10/31 01:11:22;;;;;;;32.67;15.05;;;;;;;;;;4973625;28;20026;-77
2022/10/31 01:13:49;;;;;;;35.50;13.98;;;;;;;;;;4973758;28;20487;-77
2022/10/31 01:16:16;;;;;;;29.23;14.10;;;;;;;;;;4974246;28;20483;-77
2022/10/31 01:18:43;;;;;;;28.60;14.00;;;;;;;;;;4974169;28;20495;-78
2022/10/31 01:21:13;;;;;;;28.08;12.68;;;;;;;;;;4973450;28;20089;-78
2022/10/31 01:23:39;;;;;;;30.05;14.30;;;;;;;;;;4972881;28;20027;-77
2022/10/31 01:26:08;;;;;;;26.20;12.20;;;;;;;;;;4974017;28;20038;-78
2022/10/31 01:28:37;;;;;;;25.55;11.55;;;;;;;;;;4974137;28;20027;-78
2022/10/31 01:31:05;;;;;;;23.77;11.68;;;;;;;;;;4973164;28;20027;-78
2022/10/31 01:33:31;;;;;;;30.27;13.30;;;;;;;;;;4973580;28;20034;-78
2022/10/31 01:35:57;;;;;;;29.45;13.43;;;;;;;;;;4973972;28;20039;-78
2022/10/31 01:38:23;;;;;;;27.63;13.63;;;;;;;;;;4973659;28;20027;-78
2022/10/31 01:40:49;;;;;;;30.80;14.52;;;;;;;;;;4973857;28;20034;-77
2022/10/31 01:43:15;;;;;;;28.00;13.32;;;;;;;;;;4971465;28;20019;-77
2022/10/31 01:45:45;;;;;;;30.80;14.38;;;;;;;;;;4973755;28;20026;-77
2022/10/31 01:48:14;;;;;;;30.63;14.02;;;;;;;;;;4973809;28;20708;-78
2022/10/31 01:50:40;;;;;;;33.17;14.35;;;;;;;;;;4973563;28;20474;-77
2022/10/31 01:53:07;;;;;;;34.42;14.95;;;;;;;;;;4972910;28;20030;-77
2022/10/31 01:55:35;;;;;;;28.13;14.38;;;;;;;;;;4973606;28;20056;-77
2022/10/31 01:58:12;;;;;;;39.50;16.73;;;;;;;;;;4973432;28;20033;-77
2022/10/31 02:00:39;;;;;;;30.90;14.93;;;;;;;;;;4972740;28;20019;-77
2022/10/31 02:03:05;;;;;;;32.75;14.55;;;;;;;;;;4973235;28;20450;-77
2022/10/31 02:05:31;;;;;;;33.58;14.27;;;;;;;;;;4973273;28;20027;-78
2022/10/31 02:08:16;;;;;;;31.33;13.45;;;;;;;;;;4973327;28;20022;-78
2022/10/31 02:10:43;;;;;;;30.85;13.05;;;;;;;;;;4972397;28;20048;-77
2022/10/31 02:13:09;;;;;;;33.50;14.45;;;;;;;;;;4973325;28;20030;-78
2022/10/31 02:15:36;;;;;;;28.60;13.32;;;;;;;;;;4973238;28;20055;-78
2022/10/31 02:18:03;;;;;;;29.25;12.88;;;;;;;;;;4973254;28;20078;-78
2022/10/31 02:20:42;;;;;;;32.22;13.90;;;;;;;;;;4972265;28;20043;-78
2022/10/31 02:23:08;;;;;;;32.38;13.32;;;;;;;;;;4972967;28;20033;-77
2022/10/31 02:25:52;;;;;;;30.90;14.00;;;;;;;;;;4973043;28;20027;-77
2022/10/31 02:28:18;;;;;;;28.70;12.25;;;;;;;;;;4973065;28;20371;-77
2022/10/31 02:31:02;;;;;;;26.60;12.90;;;;;;;;;;4972201;28;20030;-79
2022/10/31 02:33:37;;;;;;;24.75;12.13;;;;;;;;;;4972219;28;20093;-77
2022/10/31 02:36:09;;;;;;;26.15;11.88;;;;;;;;;;4972844;28;20026;-77
2022/10/31 02:38:38;;;;;;;28.25;14.35;;;;;;;;;;4972777;28;20033;-78
2022/10/31 02:41:16;;;;;;;27.90;11.82;;;;;;;;;;4971895;28;20087;-77
2022/10/31 02:44:01;;;;;;;25.58;12.40;;;;;;;;;;4972644;28;20065;-77
2022/10/31 02:46:45;;;;;;;27.00;12.63;;;;;;;;;;4972778;28;20023;-77
2022/10/31 02:49:15;;;;;;;27.45;12.15;;;;;;;;;;4973446;28;20054;-79
2022/10/31 02:51:41;;;;;;;24.15;11.50;;;;;;;;;;4976943;28;20110;-78
2022/10/31 02:54:17;;;;;;;26.33;10.70;;;;;;;;;;4977679;28;20093;-79
2022/10/31 02:56:43;;;;;;;27.58;12.57;;;;;;;;;;4977535;28;20031;-78
2022/10/31 02:59:09;;;;;;;23.55;12.45;;;;;;;;;;4978715;28;20050;-79
2022/10/31 03:01:38;;;;;;;21.27;11.13;;;;;;;;;;4977403;28;20058;-79
2022/10/31 03:04:28;;;;;;;20.98;10.70;;;;;;;;;;4977792;28;20027;-79
2022/10/31 03:07:01;;;;;;;24.92;11.93;;;;;;;;;;4975640;28;20494;-79
2022/10/31 03:09:34;;;;;;;24.48;11.80;;;;;;;;;;4977801;28;20031;-79
2022/10/31 03:12:14;;;;;;;23.60;11.38;;;;;;;;;;4977933;28;20103;-79
2022/10/31 03:14:55;;;;;;;24.48;12.15;;;;;;;;;;4978001;28;20027;-78
2022/10/31 03:17:33;;;;;;;27.10;12.30;;;;;;;;;;4977767;28;20027;-79
2022/10/31 03:20:00;;;;;;;30.60;13.95;;;;;;;;;;4977465;28;20027;-79
2022/10/31 03:22:29;;;;;;;30.17;12.98;;;;;;;;;;4978203;28;20030;-79
2022/10/31 03:24:55;;;;;;;28.77;13.98;;;;;;;;;;4977625;28;20034;-79
2022/10/31 03:27:26;;;;;;;28.15;13.70;;;;;;;;;;4976448;28;20085;-79
2022/10/31 03:29:54;;;;;;;27.95;12.20;;;;;;;;;;4976952;28;20027;-79
2022/10/31 03:32:25;;;;;;;24.23;11.82;;;;;;;;;;4977757;28;20097;-79
2022/10/31 03:34:54;;;;;;;25.73;11.77;;;;;;;;;;4977647;28;20030;-78
2022/10/31 03:37:21;;;;;;;27.77;12.07;;;;;;;;;;4977824;28;20039;-79
2022/10/31 03:39:48;;;;;;;26.55;11.73;;;;;;;;;;4976836;28;20084;-78
2022/10/31 03:42:16;;;;;;;28.65;12.25;;;;;;;;;;4958170;29;20034;-79
2022/10/31 03:44:45;;;;;;;28.20;12.02;;;;;;;;;;4957956;29;20031;-78
2022/10/31 03:47:11;;;;;;;29.13;13.25;;;;;;;;;;4961099;29;20081;-79
2022/10/31 03:49:37;;;;;;;31.25;13.32;;;;;;;;;;4961470;29;20038;-79
2022/10/31 03:52:10;;;;;;;31.33;14.10;;;;;;;;;;4978811;28;20042;-79
2022/10/31 03:54:42;;;;;;;26.20;12.68;;;;;;;;;;4980891;28;20027;-78
2022/10/31 03:57:27;;;;;;;32.40;13.02;;;;;;;;;;4980632;28;20035;-79
2022/10/31 04:00:12;;;;;;;29.00;12.73;;;;;;;;;;4980410;28;20553;-77
2022/10/31 04:02:40;;;;;;;27.58;12.27;;;;;;;;;;4980975;28;20023;-80
2022/10/31 04:05:06;;;;;;;27.05;12.35;;;;;;;;;;4979931;28;20034;-79
2022/10/31 04:07:36;;;;;;;25.45;11.85;;;;;;;;;;4980455;28;20094;-80
2022/10/31 04:10:04;;;;;;;23.73;11.43;;;;;;;;;;4979824;28;20037;-80
2022/10/31 04:12:31;;;;;;;24.63;11.68;;;;;;;;;;4980837;28;20019;-78
2022/10/31 04:14:57;;;;;;;25.08;12.07;;;;;;;;;;4980774;28;20374;-79
2022/10/31 04:17:25;;;;;;;24.83;12.77;;;;;;;;;;4980549;28;20053;-78
2022/10/31 04:19:51;;;;;;;22.65;11.63;;;;;;;;;;4979869;28;20993;-78
2022/10/31 04:22:17;;;;;;;24.90;12.90;;;;;;;;;;4980407;28;20125;-78
2022/10/31 04:24:43;;;;;;;23.00;10.88;;;;;;;;;;4980705;28;20074;-78
2022/10/31 04:27:09;;;;;;;23.08;11.27;;;;;;;;;;4980337;28;20051;-79
2022/10/31 04:29:35;;;;;;;23.95;11.18;;;;;;;;;;4979918;28;20035;-77
2022/10/31 04:32:01;;;;;;;22.30;10.38;;;;;;;;;;4979883;28;20094;-79
2022/10/31 04:34:27;;;;;;;20.80;11.25;;;;;;;;;;4980599;28;20031;-79
2022/10/31 04:36:52;;;;;;;18.80;9.57;;;;;;;;;;4979141;28;20035;-79
2022/10/31 04:39:19;;;;;;;20.75;10.77;;;;;;;;;;4980286;28;20041;-80
2022/10/31 04:41:45;;;;;;;22.40;10.35;;;;;;;;;;4979434;28;20495;-78
2022/10/31 04:44:11;;;;;;;22.13;10.40;;;;;;;;;;4980078;28;20049;-79
2022/10/31 04:46:37;;;;;;;22.67;11.07;;;;;;;;;;4980816;28;20082;-80
2022/10/31 04:49:03;;;;;;;24.10;10.98;;;;;;;;;;4979945;28;20025;-80
2022/10/31 04:51:29;;;;;;;20.70;10.57;;;;;;;;;;4979012;28;20758;-80
2022/10/31 04:53:55;;;;;;;19.80;9.30;;;;;;;;;;4979768;28;20098;-79
2022/10/31 04:56:22;;;;;;;22.15;9.85;;;;;;;;;;4980210;28;20058;-78
2022/10/31 04:58:48;;;;;;;20.67;9.88;;;;;;;;;;4980696;28;20031;-79
2022/10/31 05:01:14;;;;;;;20.98;9.68;;;;;;;;;;4978071;28;20042;-79
2022/10/31 05:03:40;;;;;;;19.20;9.55;;;;;;;;;;4980653;28;20054;-80
2022/10/31 05:06:06;;;;;;;18.98;9.43;;;;;;;;;;4980156;28;20019;-80
2022/10/31 05:08:32;;;;;;;17.60;8.93;;;;;;;;;;4980392;28;20022;-80
2022/10/31 05:11:02;;;;;;;19.00;9.40;;;;;;;;;;4978550;28;20090;-79
2022/10/31 05:13:28;;;;;;;18.30;8.95;;;;;;;;;;4979944;28;20037;-79
2022/10/31 05:15:54;;;;;;;18.42;9.57;;;;;;;;;;4979842;28;20030;-80
2022/10/31 05:18:20;;;;;;;14.95;8.40;;;;;;;;;;4980295;28;20085;-79
2022/10/31 05:20:46;;;;;;;12.32;6.53;;;;;;;;;;4979227;28;20038;-80
2022/10/31 05:23:12;;;;;;;13.48;6.25;;;;;;;;;;4979983;28;20093;-80
2022/10/31 05:25:38;;;;;;;10.27;4.95;;;;;;;;;;4980114;28;20027;-80
2022/10/31 05:28:04;;;;;;;12.52;5.97;;;;;;;;;;4979839;28;20030;-79
2022/10/31 05:30:31;;;;;;;8.13;4.80;;;;;;;;;;4977454;28;20109;-79
2022/10/31 05:32:57;;;;;;;8.10;4.35;;;;;;;;;;4979534;28;20043;-79
2022/10/31 05:35:31;;;;;;;9.20;4.60;;;;;;;;;;4979439;28;20058;-78
2022/10/31 05:37:59;;;;;;;7.50;4.00;;;;;;;;;;4978358;28;20042;-79
2022/10/31 05:40:26;;;;;;;9.30;4.80;;;;;;;;;;4978075;28;20042;-79
2022/10/31 05:42:53;;;;;;;7.28;4.05;;;;;;;;;;4978181;28;20033;-79
2022/10/31 05:45:19;;;;;;;8.93;5.05;;;;;;;;;;4978189;28;20046;-79
2022/10/31 05:47:56;;;;;;;8.57;4.40;;;;;;;;;;4978834;28;20065;-77
2022/10/31 05:50:22;;;;;;;9.63;4.57;;;;;;;;;;4972804;28;20025;-77
2022/10/31 05:52:48;;;;;;;7.28;3.70;;;;;;;;;;4972961;28;20114;-77
2022/10/31 05:55:14;;;;;;;6.68;3.85;;;;;;;;;;4973436;28;20031;-78
2022/10/31 05:57:40;;;;;;;8.27;3.90;;;;;;;;;;4973722;28;20034;-77
2022/10/31 06:00:06;;;;;;;6.60;3.38;;;;;;;;;;4972702;28;20034;-77
2022/10/31 06:02:34;;;;;;;5.63;3.50;;;;;;;;;;4973366;28;20023;-78
2022/10/31 06:05:00;;;;;;;6.95;2.88;;;;;;;;;;4973494;28;20027;-78
2022/10/31 06:07:26;;;;;;;6.63;3.45;;;;;;;;;;4976451;28;20019;-79
2022/10/31 06:09:52;;;;;;;8.00;3.45;;;;;;;;;;4973969;28;20042;-78
2022/10/31 06:12:21;;;;;;;6.90;3.47;;;;;;;;;;4973336;28;20278;-78
2022/10/31 06:14:47;;;;;;;7.63;3.67;;;;;;;;;;4973648;28;20041;-78
2022/10/31 06:17:13;;;;;;;6.78;3.85;;;;;;;;;;4973806;28;20027;-78
2022/10/31 06:19:39;;;;;;;8.30;3.38;;;;;;;;;;4973030;28;20487;-77
2022/10/31 06:22:05;;;;;;;7.05;3.67;;;;;;;;;;4972212;28;20094;-78
2022/10/31 06:24:31;;;;;;;7.00;3.30;;;;;;;;;;4973595;28;20042;-78
2022/10/31 06:26:57;;;;;;;7.68;3.75;;;;;;;;;;4973246;28;20035;-79
2022/10/31 06:29:23;;;;;;;7.35;3.50;;;;;;;;;;4973837;28;20477;-78
2022/10/31 06:31:51;;;;;;;7.57;3.67;;;;;;;;;;4972985;28;20030;-77
2022/10/31 06:34:17;;;;;;;7.55;4.28;;;;;;;;;;4977311;28;20035;-79
2022/10/31 06:36:43;;;;;;;6.80;3.65;;;;;;;;;;4977502;28;20025;-79
2022/10/31 06:39:09;;;;;;;6.63;3.25;;;;;;;;;;4977637;28;20087;-79
2022/10/31 06:41:36;;;;;;;6.75;3.67;;;;;;;;;;4976264;28;20042;-79
2022/10/31 06:44:02;;;;;;;7.72;3.30;;;;;;;;;;4974499;28;20551;-77
2022/10/31 06:46:28;;;;;;;6.43;3.28;;;;;;;;;;4972815;28;20427;-78
2022/10/31 06:48:54;;;;;;;6.57;3.30;;;;;;;;;;4971236;28;20019;-78
2022/10/31 06:51:20;;;;;;;7.07;3.78;;;;;;;;;;4971700;28;20130;-77
2022/10/31 06:53:46;;;;;;;6.38;3.25;;;;;;;;;;4972385;28;20026;-77
2022/10/31 06:56:12;;;;;;;6.57;3.40;;;;;;;;;;4972413;28;20035;-77
2022/10/31 06:58:38;;;;;;;7.80;3.60;;;;;;;;;;4972581;28;20030;-77
2022/10/31 07:01:04;;;;;;;8.10;3.67;;;;;;;;;;4971860;28;20399;-79
2022/10/31 07:03:30;;;;;;;6.63;3.70;;;;;;;;;;4976830;28;20033;-79
2022/10/31 07:05:56;;;;;;;7.05;3.65;;;;;;;;;;4977083;28;20038;-79
2022/10/31 07:08:22;;;;;;;7.72;3.85;;;;;;;;;;4976919;28;20029;-79
2022/10/31 07:10:55;;;;;;;7.50;3.38;;;;;;;;;;4976536;28;20062;-79
2022/10/31 07:13:25;;;;;;;6.95;3.67;;;;;;;;;;4976806;28;20022;-79
2022/10/31 07:15:53;;;;;;;5.88;3.03;;;;;;;;;;4978612;28;20019;-80
2022/10/31 07:18:19;;;;;;;7.20;3.83;;;;;;;;;;4978380;28;20019;-80
2022/10/31 07:20:45;;;;;;;7.72;3.40;;;;;;;;;;4979988;28;20117;-80
2022/10/31 07:23:11;;;;;;;6.75;3.60;;;;;;;;;;4982220;28;20485;-80
2022/10/31 07:25:37;;;;;;;8.85;4.38;;;;;;;;;;4981514;28;20092;-80
2022/10/31 07:28:03;;;;;;;9.60;4.60;;;;;;;;;;4981268;28;20018;-80
2022/10/31 07:30:29;;;;;;;9.82;4.90;;;;;;;;;;4980949;28;20117;-79
2022/10/31 07:32:55;;;;;;;9.98;5.05;;;;;;;;;;4981940;28;20058;-80
2022/10/31 07:35:23;;;;;;;9.63;4.53;;;;;;;;;;4981675;28;20113;-78
2022/10/31 07:37:49;;;;;;;8.70;4.63;;;;;;;;;;4979072;28;20101;-78
2022/10/31 07:40:16;;;;;;;10.30;5.25;;;;;;;;;;4978353;28;20089;-78
2022/10/31 07:42:43;;;;;;;11.65;4.82;;;;;;;;;;4978682;28;20027;-78
2022/10/31 07:45:10;;;;;;;11.80;5.18;;;;;;;;;;4978173;28;20441;-78
2022/10/31 07:47:43;;;;;;;11.57;5.60;;;;;;;;;;4978274;28;20022;-78
2022/10/31 07:50:11;;;;;;;10.25;4.85;;;;;;;;;;4975612;28;20039;-77
2022/10/31 07:52:37;;;;;;;11.77;5.85;;;;;;;;;;4975599;28;20038;-78
2022/10/31 07:55:03;;;;;;;10.55;6.05;;;;;;;;;;4975828;28;20027;-78
2022/10/31 07:57:29;;;;;;;12.73;5.20;;;;;;;;;;4975733;28;20053;-78
2022/10/31 07:59:55;;;;;;;10.88;5.28;;;;;;;;;;4974981;28;20495;-78
2022/10/31 08:02:21;;;;;;;10.80;4.97;;;;;;;;;;4975323;28;20117;-77
2022/10/31 08:04:47;;;;;;;11.82;6.15;;;;;;;;;;4975124;28;20023;-78
2022/10/31 08:07:13;;;;;;;11.18;6.35;;;;;;;;;;4975476;28;20106;-77
2022/10/31 08:09:39;;;;;;;15.27;8.40;;;;;;;;;;4974939;28;20797;-77
2022/10/31 08:12:05;;;;;;;11.13;5.82;;;;;;;;;;4974822;28;20057;-77
2022/10/31 08:14:32;;;;;;;13.65;6.35;;;;;;;;;;4975334;28;20503;-78
2022/10/31 08:16:58;;;;;;;12.70;6.13;;;;;;;;;;4975494;28;20042;-78
2022/10/31 08:19:24;;;;;;;12.18;6.45;;;;;;;;;;4975381;28;20027;-77
2022/10/31 08:21:54;;;;;;;12.15;5.72;;;;;;;;;;4974313;28;20089;-78
2022/10/31 08:24:21;;;;;;;14.35;7.10;;;;;;;;;;4975236;28;20026;-77
2022/10/31 08:26:47;;;;;;;12.05;6.82;;;;;;;;;;4974833;28;20026;-78
2022/10/31 08:29:14;;;;;;;11.10;6.43;;;;;;;;;;4974961;28;20027;-78
2022/10/31 08:31:40;;;;;;;11.80;6.57;;;;;;;;;;4973427;28;20546;-78
2022/10/31 08:34:06;;;;;;;12.93;5.78;;;;;;;;;;4974794;28;20503;-78
2022/10/31 08:36:32;;;;;;;13.55;6.05;;;;;;;;;;4974940;28;20069;-77
2022/10/31 08:38:58;;;;;;;10.32;5.63;;;;;;;;;;4974860;28;20030;-78
2022/10/31 08:41:24;;;;;;;13.15;5.60;;;;;;;;;;4973820;28;20101;-78
2022/10/31 08:43:50;;;;;;;12.98;6.28;;;;;;;;;;4974915;28;20046;-78
2022/10/31 08:46:16;;;;;;;10.07;5.57;;;;;;;;;;4974712;28;20402;-78
2022/10/31 08:48:42;;;;;;;11.98;5.88;;;;;;;;;;4974566;28;20442;-78
2022/10/31 08:51:09;;;;;;;12.10;6.25;;;;;;;;;;4973865;28;20039;-78
2022/10/31 08:53:37;;;;;;;10.63;5.72;;;;;;;;;;4974810;28;20035;-78
2022/10/31 08:56:03;;;;;;;11.52;6.35;;;;;;;;;;4974523;28;20470;-78
2022/10/31 08:58:29;;;;;;;12.93;6.25;;;;;;;;;;4974533;28;20050;-78
2022/10/31 09:00:56;;;;;;;13.13;6.32;;;;;;;;;;4973585;28;20491;-78
2022/10/31 09:03:23;;;;;;;11.82;5.97;;;;;;;;;;4974512;28;20022;-78
2022/10/31 09:05:49;;;;;;;11.15;5.88;;;;;;;;;;4974300;28;20395;-78
2022/10/31 09:08:16;;;;;;;11.85;6.28;;;;;;;;;;4974243;28;20023;-78
2022/10/31 09:10:42;;;;;;;12.18;6.18;;;;;;;;;;4973360;28;20027;-79
2022/10/31 09:13:16;;;;;;;12.85;6.15;;;;;;;;;;4965809;28;20066;-78
2022/10/31 09:15:43;;;;;;;12.10;6.45;;;;;;;;;;4974196;28;20066;-76
2022/10/31 09:18:10;;;;;;;14.27;7.05;;;;;;;;;;4974446;28;20027;-78
2022/10/31 09:20:37;;;;;;;11.80;6.35;;;;;;;;;;4975313;28;20043;-78
2022/10/31 09:23:07;;;;;;;14.60;7.68;;;;;;;;;;4975060;28;20038;-78
2022/10/31 09:25:34;;;;;;;11.80;6.97;;;;;;;;;;4975339;28;20034;-79
2022/10/31 09:28:01;;;;;;;12.48;7.10;;;;;;;;;;4979193;28;20054;-78
2022/10/31 09:30:28;;;;;;;12.20;6.18;;;;;;;;;;4979570;28;20085;-79
2022/10/31 09:33:02;;;;;;;17.08;7.63;;;;;;;;;;4979624;28;20049;-79
2022/10/31 09:35:28;;;;;;;13.40;6.70;;;;;;;;;;4979411;28;20041;-80
2022/10/31 09:37:58;;;;;;;14.27;7.53;;;;;;;;;;4979897;28;20506;-78
2022/10/31 09:40:35;;;;;;;16.80;6.68;;;;;;;;;;4978789;28;20023;-79
2022/10/31 09:43:09;;;;;;;13.80;7.35;;;;;;;;;;4978447;28;20031;-80
2022/10/31 09:45:48;;;;;;;16.40;7.65;;;;;;;;;;4978691;28;20027;-80
2022/10/31 09:48:20;;;;;;;11.82;7.68;;;;;;;;;;4974609;28;20042;-77
2022/10/31 09:50:49;;;;;;;15.20;7.97;;;;;;;;;;4972823;28;20077;-78
2022/10/31 09:53:28;;;;;;;12.88;7.40;;;;;;;;;;4973391;28;20821;-78
2022/10/31 09:55:55;;;;;;;13.90;7.80;;;;;;;;;;4973562;28;20027;-78
2022/10/31 09:58:25;;;;;;;15.88;7.95;;;;;;;;;;4973427;28;20031;-78
2022/10/31 10:00:51;;;;;;;13.32;7.97;;;;;;;;;;4972609;28;20038;-78
2022/10/31 10:03:20;;;;;;;16.42;8.45;;;;;;;;;;4976136;28;20086;-80
2022/10/31 10:05:57;;;;;;;18.50;9.10;;;;;;;;;;4978952;28;20105;-80
2022/10/31 10:08:28;;;;;;;16.88;9.52;;;;;;;;;;4979004;28;20022;-78
2022/10/31 10:10:59;;;;;;;16.73;8.65;;;;;;;;;;4978023;28;20419;-79
2022/10/31 10:13:38;;;;;;;18.38;9.75;;;;;;;;;;4978700;28;20035;-79
2022/10/31 10:16:24;;;;;;;19.77;10.30;;;;;;;;;;4977963;28;20041;-80
2022/10/31 10:18:50;;;;;;;18.35;9.65;;;;;;;;;;4978293;28;20038;-78
2022/10/31 10:21:16;;;;;;;18.85;9.57;;;;;;;;;;4978285;28;20050;-79
2022/10/31 10:23:57;;;;;;;20.55;11.15;;;;;;;;;;4978417;28;20027;-80
2022/10/31 10:26:29;;;;;;;22.40;9.23;;;;;;;;;;4978659;28;20263;-79
2022/10/31 10:28:58;;;;;;;20.17;9.90;;;;;;;;;;4978873;28;20030;-79
2022/10/31 10:31:25;;;;;;;21.95;11.85;;;;;;;;;;4976633;28;20070;-80
2022/10/31 10:33:51;;;;;;;21.92;11.18;;;;;;;;;;4977880;28;20031;-79
2022/10/31 10:36:21;;;;;;;16.80;10.70;;;;;;;;;;4977763;28;20023;-79
2022/10/31 10:39:00;;;;;;;19.33;10.60;;;;;;;;;;4978499;28;20035;-80
2022/10/31 10:41:31;;;;;;;16.63;8.98;;;;;;;;;;4977006;28;20454;-80
2022/10/31 10:43:57;;;;;;;21.50;11.45;;;;;;;;;;4977694;28;20467;-79
2022/10/31 10:49:41;;;;;;;21.27;11.95;;;;;;;;;;4978275;28;20046;-79
2022/10/31 10:52:07;;;;;;;20.65;11.88;;;;;;;;;;4976197;28;20471;-79
2022/10/31 10:54:45;;;;;;;24.45;12.02;;;;;;;;;;4958187;28;20023;-79
2022/10/31 10:57:12;;;;;;;21.48;11.77;;;;;;;;;;4956389;29;20020;-78
2022/10/31 10:59:38;;;;;;;25.38;12.95;;;;;;;;;;4958109;28;20047;-77
2022/10/31 11:02:11;;;;;;;25.48;14.38;;;;;;;;;;4974900;28;20031;-78
2022/10/31 11:04:40;;;;;;;23.63;12.30;;;;;;;;;;4972689;28;20049;-77
2022/10/31 11:07:07;;;;;;;23.65;12.35;;;;;;;;;;4972749;28;20035;-76
2022/10/31 11:09:34;;;;;;;24.10;12.52;;;;;;;;;;4972240;28;20117;-77
2022/10/31 11:12:06;;;;;;;28.38;14.00;;;;;;;;;;4971934;28;20509;-77
2022/10/31 11:14:32;;;;;;;29.02;14.38;;;;;;;;;;4972438;28;20023;-77
2022/10/31 11:17:22;;;;;;;26.67;14.52;;;;;;;;;;4972397;28;20035;-77
2022/10/31 11:19:50;;;;;;;29.48;13.68;;;;;;;;;;4968677;28;20035;-77
2022/10/31 11:22:20;;;;;;;28.52;14.13;;;;;;;;;;4972100;28;20046;-77
2022/10/31 11:24:46;;;;;;;27.38;15.25;;;;;;;;;;4972517;28;20487;-77
2022/10/31 11:27:14;;;;;;;28.38;15.00;;;;;;;;;;4972357;28;20686;-77
2022/10/31 11:29:40;;;;;;;25.40;14.25;;;;;;;;;;4971580;28;20487;-77
2022/10/31 11:32:17;;;;;;;30.55;14.90;;;;;;;;;;4973038;28;20586;-79
2022/10/31 11:34:45;;;;;;;30.45;15.52;;;;;;;;;;4977293;28;20066;-79
2022/10/31 11:37:19;;;;;;;29.25;14.63;;;;;;;;;;4977249;28;20023;-79
2022/10/31 11:39:52;;;;;;;29.00;14.95;;;;;;;;;;4976183;28;20534;-77
2022/10/31 11:42:20;;;;;;;29.30;15.00;;;;;;;;;;4971495;28;20525;-77
2022/10/31 11:44:46;;;;;;;30.92;14.70;;;;;;;;;;4972055;28;20053;-77
2022/10/31 11:47:14;;;;;;;28.13;15.73;;;;;;;;;;4972057;28;20061;-77
2022/10/31 11:49:41;;;;;;;31.20;15.07;;;;;;;;;;4971502;28;20030;-77
2022/10/31 11:52:09;;;;;;;32.10;16.33;;;;;;;;;;4971865;28;20069;-77
2022/10/31 11:54:55;;;;;;;30.75;15.70;;;;;;;;;;4972005;28;20029;-77
2022/10/31 11:57:42;;;;;;;33.53;17.02;;;;;;;;;;4971174;28;20027;-77
2022/10/31 12:00:29;;;;;;;35.03;17.58;;;;;;;;;;4970937;28;20038;-77
2022/10/31 12:03:13;;;;;;;27.85;14.73;;;;;;;;;;4971582;28;20039;-76
2022/10/31 12:05:40;;;;;;;30.92;15.63;;;;;;;;;;4971874;28;20117;-78
2022/10/31 12:08:08;;;;;;;28.02;15.52;;;;;;;;;;4973881;28;20442;-78
2022/10/31 12:10:40;;;;;;;28.83;15.68;;;;;;;;;;4973999;28;20041;-77
2022/10/31 12:13:25;;;;;;;31.23;15.70;;;;;;;;;;4962005;28;20019;-77
2022/10/31 12:15:56;;;;;;;33.15;15.75;;;;;;;;;;4955790;29;20099;-77
2022/10/31 12:18:21;;;;;;;31.58;16.60;;;;;;;;;;4972878;28;20035;-77
2022/10/31 12:20:58;;;;;;;33.80;15.02;;;;;;;;;;4974336;28;20133;-77
2022/10/31 12:23:30;;;;;;;31.98;14.30;;;;;;;;;;4974966;28;20570;-77
2022/10/31 12:25:59;;;;;;;29.30;14.52;;;;;;;;;;4975121;28;20041;-76
2022/10/31 12:28:28;;;;;;;26.52;13.82;;;;;;;;;;4974992;28;20019;-77
2022/10/31 12:30:57;;;;;;;29.05;14.95;;;;;;;;;;4974451;28;20037;-78
2022/10/31 12:33:35;;;;;;;28.33;14.55;;;;;;;;;;4974525;28;20053;-77
2022/10/31 12:36:26;;;;;;;27.25;14.73;;;;;;;;;;4975019;28;20026;-77
2022/10/31 12:38:55;;;;;;;30.40;14.32;;;;;;;;;;4974854;28;20053;-77
2022/10/31 12:41:28;;;;;;;29.27;14.80;;;;;;;;;;4973853;28;20031;-77
2022/10/31 12:43:57;;;;;;;27.48;13.43;;;;;;;;;;4974943;28;20027;-77
2022/10/31 12:46:26;;;;;;;25.98;13.70;;;;;;;;;;4974855;28;20050;-78
2022/10/31 12:48:58;;;;;;;27.67;13.23;;;;;;;;;;4974839;28;20019;-77
2022/10/31 12:51:43;;;;;;;25.85;13.88;;;;;;;;;;4972806;28;20364;-78
2022/10/31 12:54:12;;;;;;;26.77;13.63;;;;;;;;;;4974765;28;20121;-77
2022/10/31 12:56:41;;;;;;;25.33;13.65;;;;;;;;;;4974394;28;20031;-77
2022/10/31 12:59:22;;;;;;;26.42;14.30;;;;;;;;;;4974451;28;20459;-77
2022/10/31 13:01:51;;;;;;;27.13;13.68;;;;;;;;;;4971796;28;20130;-79
2022/10/31 13:04:17;;;;;;;25.75;13.50;;;;;;;;;;4960406;29;20398;-79
2022/10/31 13:06:47;;;;;;;26.38;13.50;;;;;;;;;;4959822;29;20050;-77
2022/10/31 13:09:17;;;;;;;26.38;12.82;;;;;;;;;;4961404;28;20034;-77
2022/10/31 13:11:49;;;;;;;30.75;14.50;;;;;;;;;;4974305;28;20030;-77
2022/10/31 13:14:18;;;;;;;26.10;12.50;;;;;;;;;;4974509;28;20041;-78
2022/10/31 13:16:47;;;;;;;29.38;13.60;;;;;;;;;;4974450;28;20031;-77
2022/10/31 13:19:39;;;;;;;33.20;14.82;;;;;;;;;;4973836;28;20451;-77
2022/10/31 13:22:08;;;;;;;30.92;14.38;;;;;;;;;;4972252;28;20066;-77
2022/10/31 13:24:36;;;;;;;29.98;14.43;;;;;;;;;;4974522;28;20026;-77
2022/10/31 13:27:07;;;;;;;39.58;18.70;;;;;;;;;;4974444;28;20027;-77
2022/10/31 13:29:34;;;;;;;32.28;15.55;;;;;;;;;;4973483;28;20031;-77
2022/10/31 13:32:09;;;;;;;37.95;18.23;;;;;;;;;;4973783;28;20031;-78
2022/10/31 13:34:38;;;;;;;35.47;16.95;;;;;;;;;;4966106;28;20031;-77
2022/10/31 13:37:10;;;;;;;34.58;16.50;;;;;;;;;;4967464;28;20503;-77
2022/10/31 13:39:36;;;;;;;39.83;18.80;;;;;;;;;;4959030;29;20062;-78
2022/10/31 13:42:05;;;;;;;37.38;18.55;;;;;;;;;;4959159;29;20031;-78
2022/10/31 13:44:37;;;;;;;37.65;17.50;;;;;;;;;;4959125;29;20023;-79
2022/10/31 13:47:03;;;;;;;39.70;18.77;;;;;;;;;;4970915;28;20022;-77
2022/10/31 13:49:29;;;;;;;35.40;17.45;;;;;;;;;;4979835;28;20078;-78
2022/10/31 13:52:13;;;;;;;38.42;19.38;;;;;;;;;;4979428;28;20053;-78
2022/10/31 13:54:55;;;;;;;36.72;17.63;;;;;;;;;;4979033;28;20030;-79
2022/10/31 13:57:30;;;;;;;35.78;16.92;;;;;;;;;;4978576;28;20030;-79
2022/10/31 14:00:05;;;;;;;46.17;19.00;;;;;;;;;;4978447;28;20044;-79
2022/10/31 14:02:32;;;;;;;44.05;19.77;;;;;;;;;;4958316;28;20518;-77
2022/10/31 14:05:00;;;;;;;36.65;18.13;;;;;;;;;;4972521;28;20023;-76
2022/10/31 14:07:27;;;;;;;39.22;19.20;;;;;;;;;;4975490;28;20048;-78
2022/10/31 14:09:54;;;;;;;39.67;18.38;;;;;;;;;;4977950;28;20145;-79
2022/10/31 14:12:26;;;;;;;39.33;19.67;;;;;;;;;;4978301;28;20027;-78
2022/10/31 14:14:54;;;;;;;41.30;18.40;;;;;;;;;;4977100;28;20030;-78
2022/10/31 14:17:22;;;;;;;42.95;18.02;;;;;;;;;;4979221;28;20038;-77
2022/10/31 14:20:03;;;;;;;39.65;18.73;;;;;;;;;;4984444;28;20046;-77
2022/10/31 14:22:30;;;;;;;38.50;18.17;;;;;;;;;;4973123;28;20050;-78
2022/10/31 14:24:56;;;;;;;36.55;17.80;;;;;;;;;;4972796;28;20383;-77
2022/10/31 14:27:26;;;;;;;37.38;17.10;;;;;;;;;;4976616;28;20030;-77
2022/10/31 14:29:52;;;;;;;41.20;18.50;;;;;;;;;;4976907;28;20019;-77
2022/10/31 14:32:23;;;;;;;37.78;18.92;;;;;;;;;;4977027;28;20495;-76
2022/10/31 14:34:56;;;;;;;40.30;17.85;;;;;;;;;;4976333;28;20102;-76
2022/10/31 14:37:29;;;;;;;39.90;18.08;;;;;;;;;;4978220;28;20039;-76